createdAt,value
2022-09-27T00:00:43.821Z,1.7
2022-09-27T00:02:00.104Z,1.8
2022-09-27T00:03:16.415Z,1.6
2022-09-27T00:04:32.705Z,1.8
2022-09-27T00:05:48.007Z,1.8
2022-09-27T00:07:04.300Z,1.7
2022-09-27T00:08:20.000Z,1.7
2022-09-27T00:09:36.900Z,1.7
2022-09-27T00:10:53.188Z,1.5
2022-09-27T00:12:09.473Z,1.7
2022-09-27T00:13:25.773Z,1.6
2022-09-27T00:14:42.078Z,1.5
2022-09-27T00:15:58.368Z,1.6
2022-09-27T00:17:14.658Z,1.6
2022-09-27T00:18:30.939Z,1.5
2022-09-27T00:19:47.250Z,1.6
2022-09-27T00:21:03.548Z,1.5
2022-09-27T00:22:18.850Z,1.6
2022-09-27T00:23:35.150Z,1.6
2022-09-27T00:24:51.439Z,1.7
2022-09-27T00:26:07.719Z,1.7
2022-09-27T00:27:24.027Z,1.6
2022-09-27T00:28:40.325Z,1.6
2022-09-27T00:29:56.620Z,1.8
2022-09-27T00:31:12.899Z,1.7
2022-09-27T00:32:29.199Z,1.7
2022-09-27T00:33:45.482Z,1.7
2022-09-27T00:35:01.784Z,1.7
2022-09-27T00:36:18.087Z,1.6
2022-09-27T00:37:34.373Z,1.9
2022-09-27T00:38:49.677Z,1.7
2022-09-27T00:40:05.971Z,1.9
2022-09-27T00:41:22.263Z,1.7
2022-09-27T00:42:38.557Z,1.8
2022-09-27T00:43:54.854Z,1.9
2022-09-27T00:45:11.161Z,1.9
2022-09-27T00:46:27.447Z,1.9
2022-09-27T00:47:43.746Z,2
2022-09-27T00:49:00.027Z,1.9
2022-09-27T00:50:16.329Z,2
2022-09-27T00:51:32.617Z,2
2022-09-27T00:52:48.925Z,2
2022-09-27T00:54:05.205Z,2.1
2022-09-27T00:55:20.511Z,1.9
2022-09-27T00:56:36.823Z,2.1
2022-09-27T00:57:53.119Z,2.2
2022-09-27T00:59:09.397Z,2.1
2022-09-27T01:00:25.704Z,2.2
2022-09-27T01:01:41.986Z,2.1
2022-09-27T01:02:58.275Z,2.2
2022-09-27T01:04:14.574Z,2.3
2022-09-27T01:05:30.880Z,2.2
2022-09-27T01:06:47.160Z,2.3
2022-09-27T01:08:03.458Z,2.1
2022-09-27T01:09:19.753Z,2.2
2022-09-27T01:10:36.045Z,2.2
2022-09-27T01:13:07.659Z,2.1
2022-09-27T01:14:23.956Z,2
2022-09-27T01:15:40.241Z,2.1
2022-09-27T01:16:56.529Z,2.2
2022-09-27T01:18:12.832Z,2.1
2022-09-27T01:19:29.119Z,2.2
2022-09-27T01:20:45.418Z,2.1
2022-09-27T01:22:01.714Z,2.2
2022-09-27T01:23:18.001Z,2.3
2022-09-27T01:24:34.298Z,2.3
2022-09-27T01:25:50.595Z,2.4
2022-09-27T01:27:06.896Z,2.2
2022-09-27T01:28:22.196Z,2.2
2022-09-27T01:29:38.499Z,2.4
2022-09-27T01:30:54.793Z,2.4
2022-09-27T01:32:11.076Z,2.2
2022-09-27T01:33:27.388Z,2.2
2022-09-27T01:34:43.694Z,2.2
2022-09-27T01:35:59.958Z,2.2
2022-09-27T01:37:16.264Z,2.5
2022-09-27T01:38:32.557Z,2.2
2022-09-27T01:39:48.840Z,2.3
2022-09-27T01:41:05.132Z,2.3
2022-09-27T01:42:21.429Z,2.4
2022-09-27T01:43:37.730Z,2.4
2022-09-27T01:44:54.029Z,2.3
2022-09-27T01:46:09.343Z,2.4
2022-09-27T01:47:25.631Z,2.4
2022-09-27T01:48:41.911Z,2.2
2022-09-27T01:49:58.225Z,2.5
2022-09-27T01:51:13.535Z,2.3
2022-09-27T01:52:29.828Z,2.1
2022-09-27T01:53:46.123Z,2.3
2022-09-27T01:55:02.403Z,2.4
2022-09-27T01:56:18.706Z,2.4
2022-09-27T01:57:34.998Z,2.3
2022-09-27T01:58:51.293Z,2.4
2022-09-27T02:00:07.585Z,2.5
2022-09-27T02:01:23.881Z,2.2
2022-09-27T02:02:40.183Z,2.3
2022-09-27T02:03:56.475Z,2.5
2022-09-27T02:05:12.760Z,2.1
2022-09-27T02:06:29.057Z,2.5
2022-09-27T02:07:44.371Z,2.3
2022-09-27T02:09:00.655Z,2.5
2022-09-27T02:10:16.948Z,2.2
2022-09-27T02:11:33.249Z,2.2
2022-09-27T02:12:49.538Z,2.4
2022-09-27T02:14:05.844Z,2.3
2022-09-27T02:15:22.138Z,2.3
2022-09-27T02:16:38.437Z,2.2
2022-09-27T02:17:54.716Z,2.4
2022-09-27T02:19:11.022Z,2.2
2022-09-27T02:20:27.320Z,2.4
2022-09-27T02:21:43.598Z,2.4
2022-09-27T02:22:59.902Z,2.2
2022-09-27T02:24:15.217Z,2.2
2022-09-27T02:25:31.513Z,2.3
2022-09-27T02:26:47.798Z,2.3
2022-09-27T02:28:04.100Z,2.5
2022-09-27T02:29:20.392Z,2.4
2022-09-27T02:30:36.681Z,2.3
2022-09-27T02:31:52.978Z,2.1
2022-09-27T02:33:09.258Z,2.4
2022-09-27T02:34:25.562Z,2.5
2022-09-27T02:35:41.851Z,2.1
2022-09-27T02:36:58.142Z,2.4
2022-09-27T02:38:14.450Z,2.3
2022-09-27T02:39:30.733Z,2.2
2022-09-27T02:40:46.049Z,2.2
2022-09-27T02:42:02.343Z,2.2
2022-09-27T02:43:18.646Z,2.1
2022-09-27T02:44:34.940Z,2.3
2022-09-27T02:45:51.235Z,2.2
2022-09-27T02:47:07.527Z,2.2
2022-09-27T02:48:23.809Z,2.4
2022-09-27T02:49:40.100Z,2.4
2022-09-27T02:50:56.393Z,2.2
2022-09-27T02:52:12.693Z,2.4
2022-09-27T02:53:28.995Z,2.1
2022-09-27T02:54:45.280Z,2
2022-09-27T02:56:01.575Z,2.1
2022-09-27T02:57:16.886Z,2.3
2022-09-27T02:58:33.187Z,2.2
2022-09-27T02:59:49.487Z,1.9
2022-09-27T03:01:05.783Z,2.3
2022-09-27T03:02:22.072Z,2
2022-09-27T03:03:38.355Z,1.9
2022-09-27T03:04:54.653Z,1.9
2022-09-27T03:06:10.948Z,1.7
2022-09-27T03:07:27.233Z,1.8
2022-09-27T03:08:43.544Z,1.9
2022-09-27T03:09:59.832Z,1.8
2022-09-27T03:11:16.135Z,1.8
2022-09-27T03:12:32.423Z,2.3
2022-09-27T03:13:48.722Z,1.8
2022-09-27T03:15:04.032Z,2.3
2022-09-27T03:16:20.312Z,1.8
2022-09-27T03:17:36.618Z,1.7
2022-09-27T03:18:52.905Z,1.6
2022-09-27T03:20:09.209Z,1.9
2022-09-27T03:21:25.496Z,1.6
2022-09-27T03:22:41.785Z,1.5
2022-09-27T03:23:58.084Z,1.7
2022-09-27T03:25:14.373Z,1.6
2022-09-27T03:26:30.664Z,1.6
2022-09-27T03:27:46.965Z,1.9
2022-09-27T03:30:19.552Z,1.7
2022-09-27T03:31:34.876Z,1.8
2022-09-27T03:32:51.171Z,1.8
2022-09-27T03:34:07.447Z,1.8
2022-09-27T03:35:23.746Z,1.7
2022-09-27T03:36:40.049Z,2
2022-09-27T03:37:56.343Z,1.9
2022-09-27T03:39:12.624Z,1.8
2022-09-27T03:40:28.928Z,2
2022-09-27T03:41:45.215Z,1.7
2022-09-27T03:43:01.525Z,1.7
2022-09-27T03:44:17.817Z,2.1
2022-09-27T03:45:34.102Z,2.1
2022-09-27T03:46:50.405Z,2
2022-09-27T03:48:05.705Z,2
2022-09-27T03:49:21.999Z,2.1
2022-09-27T03:50:38.290Z,2.1
2022-09-27T03:51:54.588Z,1.9
2022-09-27T03:53:10.891Z,2
2022-09-27T03:54:27.190Z,2.2
2022-09-27T03:55:43.473Z,2.1
2022-09-27T03:56:59.779Z,2
2022-09-27T03:58:16.064Z,2.1
2022-09-27T04:00:48.659Z,2.1
2022-09-27T04:02:04.954Z,2.3
2022-09-27T04:03:21.247Z,2.2
2022-09-27T04:04:36.546Z,2.1
2022-09-27T04:05:52.842Z,2.5
2022-09-27T04:07:09.144Z,2.3
2022-09-27T04:08:25.431Z,2.4
2022-09-27T04:09:41.734Z,2.7
2022-09-27T04:12:14.318Z,2.3
2022-09-27T04:13:30.621Z,2.3
2022-09-27T04:14:46.905Z,2.4
2022-09-27T04:16:03.203Z,2.4
2022-09-27T04:17:19.491Z,2.4
2022-09-27T04:18:35.784Z,2.4
2022-09-27T04:19:52.081Z,2.6
2022-09-27T04:21:07.399Z,2.6
2022-09-27T04:22:23.697Z,3.2
2022-09-27T04:23:39.976Z,2.6
2022-09-27T04:24:56.267Z,2.4
2022-09-27T04:26:12.580Z,2.4
2022-09-27T04:27:28.870Z,2.6
2022-09-27T04:28:45.164Z,2.5
2022-09-27T04:30:01.459Z,2.5
2022-09-27T04:31:17.737Z,3.8
2022-09-27T04:32:34.034Z,2.9
2022-09-27T04:33:50.335Z,4.3
2022-09-27T04:35:06.634Z,4.2
2022-09-27T04:36:22.868Z,3.6
2022-09-27T04:38:54.431Z,3.2
2022-09-27T04:40:10.668Z,3
2022-09-27T04:41:26.908Z,2.5
2022-09-27T04:42:43.140Z,2.7
2022-09-27T04:43:59.384Z,2.6
2022-09-27T04:45:15.626Z,2.5
2022-09-27T04:46:31.863Z,2.6
2022-09-27T04:47:48.111Z,2.6
2022-09-27T04:49:04.342Z,2.6
2022-09-27T04:50:20.587Z,2.6
2022-09-27T04:51:36.828Z,2.7
2022-09-27T04:54:09.297Z,2.6
2022-09-27T04:55:24.556Z,2.6
2022-09-27T04:56:40.804Z,2.7
2022-09-27T04:57:57.042Z,2.7
2022-09-27T04:59:13.276Z,2.8
2022-09-27T05:00:29.531Z,2.8
2022-09-27T05:01:45.763Z,3
2022-09-27T05:03:01.996Z,3
2022-09-27T05:04:18.234Z,3.7
2022-09-27T05:05:34.480Z,2.7
2022-09-27T05:06:50.726Z,2.4
2022-09-27T05:08:06.966Z,2.4
2022-09-27T05:09:23.213Z,2.4
2022-09-27T05:11:55.678Z,2.6
2022-09-27T05:13:11.936Z,2.6
2022-09-27T05:14:27.176Z,2.6
2022-09-27T05:15:43.423Z,2.5
2022-09-27T05:16:59.666Z,2.6
2022-09-27T05:18:15.909Z,2.6
2022-09-27T05:19:32.155Z,2.5
2022-09-27T05:20:48.386Z,2.6
2022-09-27T05:22:04.631Z,2.4
2022-09-27T05:23:20.865Z,2.3
2022-09-27T05:24:37.102Z,2.4
2022-09-27T05:25:53.345Z,2.3
2022-09-27T05:27:09.580Z,2.4
2022-09-27T05:28:25.819Z,2.4
2022-09-27T05:29:42.062Z,2.2
2022-09-27T05:32:13.554Z,2.4
2022-09-27T05:33:29.798Z,2.1
2022-09-27T05:34:46.042Z,2.3
2022-09-27T05:36:02.288Z,2.4
2022-09-27T05:37:18.520Z,2.2
2022-09-27T05:38:34.769Z,2.3
2022-09-27T05:39:51.004Z,2.1
2022-09-27T05:42:23.493Z,2
2022-09-27T05:43:39.726Z,2.1
2022-09-27T05:44:55.971Z,2.2
2022-09-27T05:47:28.446Z,2.3
2022-09-27T05:48:43.706Z,2
2022-09-27T05:49:58.969Z,2.1
2022-09-27T05:51:15.211Z,2.3
2022-09-27T05:52:31.451Z,2.1
2022-09-27T05:53:47.691Z,2
2022-09-27T05:55:03.936Z,1.8
2022-09-27T05:56:20.163Z,1.7
2022-09-27T05:57:36.399Z,1.9
2022-09-27T05:58:52.640Z,1.8
2022-09-27T06:00:08.897Z,1.8
2022-09-27T06:01:25.130Z,1.8
2022-09-27T06:02:40.382Z,1.7
2022-09-27T06:05:11.894Z,1.9
2022-09-27T06:06:27.142Z,1.8
2022-09-27T06:07:43.394Z,1.8
2022-09-27T06:08:59.632Z,1.9
2022-09-27T06:10:15.859Z,2
2022-09-27T06:11:32.110Z,1.7
2022-09-27T06:12:48.352Z,1.8
2022-09-27T06:14:04.581Z,1.6
2022-09-27T06:15:20.832Z,1.6
2022-09-27T06:16:37.068Z,1.7
2022-09-27T06:17:53.312Z,1.6
2022-09-27T06:19:09.564Z,1.6
2022-09-27T06:20:25.795Z,1.6
2022-09-27T06:21:42.043Z,1.6
2022-09-27T06:22:57.290Z,1.7
2022-09-27T06:24:13.524Z,1.5
2022-09-27T06:25:29.770Z,1.9
2022-09-27T06:26:46.007Z,1.5
2022-09-27T06:28:02.250Z,1.6
2022-09-27T06:29:18.500Z,1.9
2022-09-27T06:30:34.722Z,1.5
2022-09-27T06:31:50.967Z,1.7
2022-09-27T06:33:07.216Z,1.5
2022-09-27T06:34:23.456Z,1.5
2022-09-27T06:35:39.697Z,1.6
2022-09-27T06:36:55.935Z,1.5
2022-09-27T06:38:12.182Z,1.6
2022-09-27T06:39:27.441Z,1.5
2022-09-27T06:40:43.675Z,1.4
2022-09-27T06:41:59.910Z,1.7
2022-09-27T06:43:16.153Z,1.7
2022-09-27T06:44:32.389Z,1.7
2022-09-27T06:45:48.624Z,1.6
2022-09-27T06:47:04.865Z,1.5
2022-09-27T06:48:21.102Z,1.7
2022-09-27T06:49:37.357Z,1.6
2022-09-27T06:50:53.585Z,1.7
2022-09-27T06:52:09.833Z,1.6
2022-09-27T06:53:26.081Z,1.6
2022-09-27T06:54:42.320Z,1.7
2022-09-27T06:55:57.577Z,1.9
2022-09-27T06:57:13.803Z,2
2022-09-27T06:58:30.038Z,1.9
2022-09-27T06:59:46.287Z,1.8
2022-09-27T07:01:02.529Z,1.8
2022-09-27T07:03:35.020Z,2.2
2022-09-27T07:04:51.249Z,2
2022-09-27T07:06:07.486Z,2.1
2022-09-27T07:07:23.736Z,2.4
2022-09-27T07:08:39.968Z,2.4
2022-09-27T07:09:56.202Z,2.3
2022-09-27T07:11:12.456Z,2.1
2022-09-27T07:12:27.702Z,2.2
2022-09-27T07:13:43.938Z,2
2022-09-27T07:15:00.178Z,2
2022-09-27T07:16:16.435Z,1.8
2022-09-27T07:17:32.666Z,1.6
2022-09-27T07:18:48.902Z,1.9
2022-09-27T07:20:05.140Z,2
2022-09-27T07:21:21.380Z,2.4
2022-09-27T07:22:37.626Z,2.8
2022-09-27T07:23:53.868Z,2.3
2022-09-27T07:25:10.118Z,2.5
2022-09-27T07:26:26.358Z,2.4
2022-09-27T07:27:42.588Z,1.8
2022-09-27T07:28:57.851Z,2
2022-09-27T07:30:14.083Z,2
2022-09-27T07:31:30.321Z,1.7
2022-09-27T07:32:46.574Z,2
2022-09-27T07:34:02.813Z,1.7
2022-09-27T07:35:19.038Z,1.4
2022-09-27T07:36:35.282Z,2
2022-09-27T07:37:51.523Z,1.9
2022-09-27T07:39:07.760Z,1.7
2022-09-27T07:40:24.000Z,2.3
2022-09-27T07:41:40.247Z,1.7
2022-09-27T07:42:56.484Z,1.7
2022-09-27T07:44:12.719Z,1.3
2022-09-27T07:45:27.981Z,1.3
2022-09-27T07:46:44.230Z,1.6
2022-09-27T07:48:00.455Z,1.2
2022-09-27T07:49:16.704Z,1.3
2022-09-27T07:50:32.937Z,1.4
2022-09-27T07:51:49.191Z,1.4
2022-09-27T07:53:05.431Z,1.2
2022-09-27T07:54:21.673Z,1.3
2022-09-27T07:56:54.153Z,1.4
2022-09-27T07:58:10.389Z,1.2
2022-09-27T07:59:26.633Z,1.4
2022-09-27T08:00:42.864Z,1.3
2022-09-27T08:01:58.124Z,1.1
2022-09-27T08:04:30.602Z,1.2
2022-09-27T08:05:46.841Z,1.2
2022-09-27T08:07:03.077Z,1.3
2022-09-27T08:08:19.316Z,1.3
2022-09-27T08:09:35.562Z,1.4
2022-09-27T08:10:51.798Z,1.4
2022-09-27T08:12:08.046Z,1.3
2022-09-27T08:13:24.294Z,1.2
2022-09-27T08:14:40.522Z,1.2
2022-09-27T08:15:56.000Z,1.1
2022-09-27T08:17:12.994Z,1.2
2022-09-27T08:18:29.241Z,1.2
2022-09-27T08:19:44.500Z,1.2
2022-09-27T08:21:00.736Z,1.2
2022-09-27T08:22:16.969Z,1.1
2022-09-27T08:23:33.214Z,1.2
2022-09-27T08:24:49.457Z,1.3
2022-09-27T08:26:05.695Z,1.3
2022-09-27T08:27:21.946Z,1.2
2022-09-27T08:28:38.179Z,1.3
2022-09-27T08:29:54.410Z,1.3
2022-09-27T08:31:10.667Z,1.5
2022-09-27T08:32:26.895Z,1.5
2022-09-27T08:33:43.134Z,1.3
2022-09-27T08:34:59.374Z,1.1
2022-09-27T08:36:14.623Z,1.2
2022-09-27T08:37:30.874Z,1.3
2022-09-27T08:38:47.112Z,1.3
2022-09-27T08:40:03.353Z,1.3
2022-09-27T08:41:19.591Z,1.6
2022-09-27T08:42:35.823Z,1.1
2022-09-27T08:43:52.067Z,1.2
2022-09-27T08:45:08.300Z,1.2
2022-09-27T08:46:24.552Z,1.1
2022-09-27T08:47:40.782Z,1.1
2022-09-27T08:48:57.031Z,1.2
2022-09-27T08:50:13.275Z,1.2
2022-09-27T08:52:45.755Z,1.2
2022-09-27T08:54:01.006Z,1.3
2022-09-27T08:55:17.246Z,1.2
2022-09-27T08:56:33.492Z,1.4
2022-09-27T08:57:49.715Z,1.5
2022-09-27T08:59:05.953Z,1.3
2022-09-27T09:00:22.201Z,1.4
2022-09-27T09:01:38.437Z,1.5
2022-09-27T09:04:10.922Z,1.4
2022-09-27T09:05:27.154Z,1.4
2022-09-27T09:06:43.405Z,1.3
2022-09-27T09:07:59.632Z,1.4
2022-09-27T09:09:15.870Z,1.2
2022-09-27T09:10:31.137Z,1.3
2022-09-27T09:13:03.610Z,1.4
2022-09-27T09:14:18.885Z,1.3
2022-09-27T09:15:34.135Z,1.3
2022-09-27T09:16:50.375Z,1.2
2022-09-27T09:18:06.618Z,1.3
2022-09-27T09:20:39.081Z,1.2
2022-09-27T09:21:55.338Z,1.2
2022-09-27T09:23:11.571Z,1.2
2022-09-27T09:24:27.803Z,1.3
2022-09-27T09:25:44.055Z,1.3
2022-09-27T09:27:00.292Z,1.3
2022-09-27T09:28:16.534Z,1.1
2022-09-27T09:29:32.765Z,1.2
2022-09-27T09:30:48.999Z,1.1
2022-09-27T09:32:05.247Z,1
2022-09-27T09:33:20.496Z,1
2022-09-27T09:34:36.744Z,1.2
2022-09-27T09:35:52.983Z,1.1
2022-09-27T09:37:09.221Z,1.1
2022-09-27T09:38:25.462Z,1.1
2022-09-27T09:39:41.704Z,1.1
2022-09-27T09:40:57.947Z,1.1
2022-09-27T09:42:13.213Z,1.2
2022-09-27T09:43:28.467Z,1.2
2022-09-27T09:44:44.706Z,1
2022-09-27T09:46:00.930Z,1.2
2022-09-27T09:47:17.181Z,1.1
2022-09-27T09:48:33.427Z,1.1
2022-09-27T09:49:49.662Z,1.1
2022-09-27T09:51:05.893Z,0.9
2022-09-27T09:52:22.140Z,1.1
2022-09-27T09:53:38.377Z,0.9
2022-09-27T09:54:54.611Z,1
2022-09-27T09:56:10.853Z,1
2022-09-27T09:58:43.345Z,0.9
2022-09-27T09:59:59.575Z,1
2022-09-27T10:01:14.831Z,1.3
2022-09-27T10:02:31.066Z,1.3
2022-09-27T10:03:47.320Z,0.9
2022-09-27T10:05:03.557Z,0.9
2022-09-27T10:06:19.801Z,1
2022-09-27T10:07:36.021Z,0.9
2022-09-27T10:08:52.271Z,0.9
2022-09-27T10:10:08.502Z,1.2
2022-09-27T10:11:24.000Z,1
2022-09-27T10:12:40.994Z,1
2022-09-27T10:13:57.234Z,1
2022-09-27T10:15:13.479Z,1.1
2022-09-27T10:16:29.704Z,1.1
2022-09-27T10:19:01.202Z,1.3
2022-09-27T10:21:33.692Z,1.2
2022-09-27T10:22:48.000Z,1.3
2022-09-27T10:24:04.202Z,1.2
2022-09-27T10:25:20.456Z,1.1
2022-09-27T10:26:36.703Z,1.2
2022-09-27T10:27:52.928Z,1.1
2022-09-27T10:29:09.170Z,1.3
2022-09-27T10:30:25.415Z,1.4
2022-09-27T10:31:41.645Z,1.4
2022-09-27T10:32:57.886Z,1.2
2022-09-27T10:34:14.120Z,1.3
2022-09-27T10:36:46.600Z,1.2
2022-09-27T10:38:02.840Z,1.2
2022-09-27T10:39:19.087Z,1.6
2022-09-27T10:40:34.340Z,1.4
2022-09-27T10:41:50.590Z,1.8
2022-09-27T10:43:06.823Z,1.8
2022-09-27T10:44:23.072Z,1.6
2022-09-27T10:45:39.305Z,1.6
2022-09-27T10:46:55.543Z,1.6
2022-09-27T10:48:11.790Z,1.5
2022-09-27T10:49:28.033Z,1.7
2022-09-27T10:50:44.253Z,1.7
2022-09-27T10:51:59.519Z,1.7
2022-09-27T10:53:14.771Z,1.7
2022-09-27T10:54:31.029Z,1.6
2022-09-27T10:55:47.261Z,1.5
2022-09-27T10:57:03.489Z,1.6
2022-09-27T10:58:19.741Z,1.3
2022-09-27T10:59:35.987Z,1.4
2022-09-27T11:00:52.211Z,1.7
2022-09-27T11:02:08.451Z,1.7
2022-09-27T11:03:24.707Z,1.7
2022-09-27T11:04:40.946Z,1.5
2022-09-27T11:05:57.167Z,1.4
2022-09-27T11:07:13.429Z,1.4
2022-09-27T11:08:29.660Z,1.4
2022-09-27T11:09:44.919Z,1.3
2022-09-27T11:11:01.158Z,1.3
2022-09-27T11:12:17.397Z,1.4
2022-09-27T11:13:33.630Z,1.3
2022-09-27T11:14:49.862Z,1.3
2022-09-27T11:16:06.122Z,1.4
2022-09-27T11:17:22.348Z,1.5
2022-09-27T11:18:38.601Z,1.4
2022-09-27T11:19:54.833Z,1.5
2022-09-27T11:21:11.073Z,1.2
2022-09-27T11:22:27.314Z,1.4
2022-09-27T11:23:43.562Z,1.3
2022-09-27T11:26:16.026Z,1.2
2022-09-27T11:27:31.278Z,1.2
2022-09-27T11:30:03.772Z,1.4
2022-09-27T11:31:20.001Z,1.5
2022-09-27T11:32:36.243Z,1.3
2022-09-27T11:33:52.489Z,1.3
2022-09-27T11:35:08.724Z,1.4
2022-09-27T11:36:24.967Z,1.3
2022-09-27T11:37:41.203Z,1.3
2022-09-27T11:38:57.446Z,1.5
2022-09-27T11:40:13.674Z,1.3
2022-09-27T11:41:29.930Z,1.3
2022-09-27T11:42:46.170Z,1.3
2022-09-27T11:44:01.419Z,1.1
2022-09-27T11:45:17.649Z,1.4
2022-09-27T11:46:33.908Z,1.5
2022-09-27T11:47:50.137Z,1.8
2022-09-27T11:49:06.371Z,1.7
2022-09-27T11:50:22.624Z,1.4
2022-09-27T11:51:38.855Z,1.4
2022-09-27T11:52:55.107Z,1.2
2022-09-27T11:54:11.337Z,1.4
2022-09-27T11:55:27.569Z,1.7
2022-09-27T11:56:43.825Z,1.6
2022-09-27T11:58:00.056Z,1.4
2022-09-27T11:59:16.291Z,1.1
2022-09-27T12:00:31.543Z,1.1
2022-09-27T12:01:47.802Z,1
2022-09-27T12:03:04.022Z,1
2022-09-27T12:04:20.262Z,1.1
2022-09-27T12:05:36.508Z,1.2
2022-09-27T12:06:52.751Z,1.3
2022-09-27T12:08:09.000Z,1.5
2022-09-27T12:09:25.235Z,1.2
2022-09-27T12:10:41.478Z,1.5
2022-09-27T12:11:57.710Z,1.5
2022-09-27T12:13:13.957Z,1.4
2022-09-27T12:14:30.188Z,1.4
2022-09-27T12:15:46.423Z,1.4
2022-09-27T12:17:02.663Z,1.6
2022-09-27T12:18:17.938Z,1.5
2022-09-27T12:19:34.168Z,1.6
2022-09-27T12:20:50.402Z,1.6
2022-09-27T12:22:06.653Z,1.5
2022-09-27T12:23:22.889Z,1.3
2022-09-27T12:24:39.123Z,1.4
2022-09-27T12:25:55.362Z,1.3
2022-09-27T12:27:11.607Z,1.2
2022-09-27T12:28:27.846Z,1.2
2022-09-27T12:29:44.083Z,1.1
2022-09-27T12:31:00.323Z,1.2
2022-09-27T12:32:16.577Z,1.4
2022-09-27T12:33:32.802Z,1.4
2022-09-27T12:34:48.060Z,1.3
2022-09-27T12:36:04.309Z,1.5
2022-09-27T12:37:20.544Z,1.4
2022-09-27T12:38:36.787Z,1.6
2022-09-27T12:39:53.032Z,1.6
2022-09-27T12:41:09.267Z,1.5
2022-09-27T12:42:25.513Z,1.5
2022-09-27T12:43:41.737Z,1.4
2022-09-27T12:44:57.977Z,1.2
2022-09-27T12:46:14.228Z,1.2
2022-09-27T12:47:30.465Z,1.1
2022-09-27T12:48:46.699Z,1.1
2022-09-27T12:50:02.943Z,1.2
2022-09-27T12:51:18.210Z,1.4
2022-09-27T12:53:50.683Z,1.5
2022-09-27T12:55:06.914Z,1.4
2022-09-27T12:56:23.154Z,1.5
2022-09-27T12:57:39.393Z,1.5
2022-09-27T12:58:55.644Z,1.5
2022-09-27T13:01:28.115Z,1.7
2022-09-27T13:02:44.364Z,1.7
2022-09-27T13:04:00.597Z,1.4
2022-09-27T13:05:16.837Z,1.5
2022-09-27T13:06:33.081Z,1.5
2022-09-27T13:07:49.318Z,1.4
2022-09-27T13:10:20.814Z,1.5
2022-09-27T13:11:36.066Z,1.5
2022-09-27T13:12:51.339Z,1.7
2022-09-27T13:14:07.561Z,1.6
2022-09-27T13:15:23.798Z,1.3
2022-09-27T13:16:40.039Z,1.4
2022-09-27T13:17:56.281Z,1.5
2022-09-27T13:19:12.526Z,1.5
2022-09-27T13:20:28.770Z,1.3
2022-09-27T13:21:45.016Z,1.4
2022-09-27T13:23:01.250Z,1.4
2022-09-27T13:24:17.492Z,1.5
2022-09-27T13:25:32.745Z,1.3
2022-09-27T13:26:48.012Z,1.4
2022-09-27T13:28:04.250Z,2
2022-09-27T13:29:20.475Z,1.5
2022-09-27T13:30:36.730Z,1.4
2022-09-27T13:31:52.957Z,1.4
2022-09-27T13:33:09.208Z,1.3
2022-09-27T13:34:25.446Z,1.4
2022-09-27T13:35:41.675Z,1.4
2022-09-27T13:36:57.918Z,1.5
2022-09-27T13:39:30.398Z,1.5
2022-09-27T13:40:46.633Z,1.4
2022-09-27T13:42:02.892Z,1.5
2022-09-27T13:43:19.131Z,1.4
2022-09-27T13:44:34.380Z,1.5
2022-09-27T13:45:50.617Z,1.4
2022-09-27T13:47:06.849Z,1.6
2022-09-27T13:48:23.089Z,1.9
2022-09-27T13:49:39.340Z,1.7
2022-09-27T13:50:55.575Z,1.7
2022-09-27T13:52:11.817Z,1.4
2022-09-27T13:53:28.064Z,1.4
2022-09-27T13:54:44.000Z,1.4
2022-09-27T13:56:00.526Z,1.4
2022-09-27T13:57:16.766Z,1.4
2022-09-27T13:58:33.015Z,1.5
2022-09-27T13:59:49.254Z,1.5
2022-09-27T14:01:05.494Z,1.6
2022-09-27T14:02:20.739Z,1.5
2022-09-27T14:03:36.998Z,1.7
2022-09-27T14:04:53.226Z,1.8
2022-09-27T14:06:09.474Z,1.7
2022-09-27T14:07:25.701Z,1.9
2022-09-27T14:08:41.951Z,2.4
2022-09-27T14:09:58.193Z,1.9
2022-09-27T14:11:14.436Z,1.9
2022-09-27T14:12:30.668Z,1.8
2022-09-27T14:13:46.907Z,1.7
2022-09-27T14:15:03.139Z,1.7
2022-09-27T14:16:19.384Z,2
2022-09-27T14:17:35.618Z,2
2022-09-27T14:18:50.886Z,1.8
2022-09-27T14:20:07.123Z,2.1
2022-09-27T14:21:23.359Z,1.9
2022-09-27T14:22:39.602Z,2
2022-09-27T14:23:55.842Z,1.9
2022-09-27T14:25:12.074Z,2.1
2022-09-27T14:26:28.320Z,2.1
2022-09-27T14:27:44.556Z,2.1
2022-09-27T14:29:00.000Z,1.9
2022-09-27T14:30:17.044Z,2.5
2022-09-27T14:31:33.273Z,2.3
2022-09-27T14:32:49.526Z,2.9
2022-09-27T14:34:05.751Z,2.1
2022-09-27T14:35:21.012Z,2
2022-09-27T14:36:37.252Z,1.9
2022-09-27T14:37:52.524Z,1.9
2022-09-27T14:39:08.748Z,2
2022-09-27T14:40:24.986Z,2.3
2022-09-27T14:41:41.228Z,1.9
2022-09-27T14:42:57.463Z,1.8
2022-09-27T14:44:13.709Z,1.7
2022-09-27T14:45:29.959Z,1.9
2022-09-27T14:46:46.189Z,1.9
2022-09-27T14:48:02.437Z,1.8
2022-09-27T14:49:18.677Z,1.7
2022-09-27T14:50:34.910Z,1.7
2022-09-27T14:51:51.148Z,1.6
2022-09-27T14:53:07.385Z,1.7
2022-09-27T14:54:22.644Z,1.7
2022-09-27T14:55:38.893Z,1.6
2022-09-27T14:56:55.131Z,1.7
2022-09-27T14:58:11.357Z,1.6
2022-09-27T14:59:27.606Z,1.6
2022-09-27T15:00:43.856Z,1.7
2022-09-27T15:02:00.092Z,1.6
2022-09-27T15:03:16.336Z,1.6
2022-09-27T15:04:32.559Z,1.5
2022-09-27T15:05:48.812Z,1.6
2022-09-27T15:07:05.035Z,1.5
2022-09-27T15:08:21.283Z,1.3
2022-09-27T15:09:37.530Z,1.5
2022-09-27T15:10:53.756Z,1.6
2022-09-27T15:12:09.995Z,1.5
2022-09-27T15:13:25.260Z,1.5
2022-09-27T15:14:41.494Z,1.6
2022-09-27T15:15:57.745Z,1.5
2022-09-27T15:17:13.981Z,1.7
2022-09-27T15:18:30.216Z,1.5
2022-09-27T15:19:46.453Z,1.6
2022-09-27T15:21:02.705Z,1.5
2022-09-27T15:22:18.945Z,1.5
2022-09-27T15:23:35.173Z,1.5
2022-09-27T15:24:51.419Z,1.4
2022-09-27T15:26:07.647Z,1.3
2022-09-27T15:27:23.906Z,1.4
2022-09-27T15:28:40.126Z,1.5
2022-09-27T15:29:55.391Z,1.4
2022-09-27T15:31:11.625Z,1.5
2022-09-27T15:32:27.875Z,1.5
2022-09-27T15:33:44.100Z,1.3
2022-09-27T15:35:00.349Z,1.6
2022-09-27T15:36:16.588Z,1.6
2022-09-27T15:40:05.303Z,1.5
2022-09-27T15:41:21.545Z,1.6
2022-09-27T15:42:37.785Z,1.6
2022-09-27T15:43:54.028Z,1.4
2022-09-27T15:45:10.273Z,1.3
2022-09-27T15:46:25.518Z,1.3
2022-09-27T15:47:41.757Z,1.3
2022-09-27T15:48:58.003Z,1.2
2022-09-27T15:50:14.249Z,1.2
2022-09-27T15:51:30.482Z,1.4
2022-09-27T15:52:46.727Z,1.2
2022-09-27T15:54:02.972Z,1.3
2022-09-27T15:55:19.193Z,1.4
2022-09-27T15:56:35.434Z,1.5
2022-09-27T15:57:51.683Z,1.6
2022-09-27T15:59:07.924Z,1.6
2022-09-27T16:00:24.153Z,1.8
2022-09-27T16:01:40.392Z,1.8
2022-09-27T16:02:56.642Z,1.8
2022-09-27T16:04:11.906Z,1.7
2022-09-27T16:05:28.131Z,1.9
2022-09-27T16:06:44.379Z,2.1
2022-09-27T16:08:00.609Z,1.7
2022-09-27T16:09:16.850Z,1.8
2022-09-27T16:11:49.345Z,1.9
2022-09-27T16:13:05.583Z,2.1
2022-09-27T16:14:21.815Z,2.1
2022-09-27T16:15:38.059Z,2.2
2022-09-27T16:16:54.303Z,2.2
2022-09-27T16:19:26.000Z,2.2
2022-09-27T16:20:43.027Z,2.4
2022-09-27T16:21:58.268Z,2.2
2022-09-27T16:23:14.518Z,2.2
2022-09-27T16:24:30.749Z,1.9
2022-09-27T16:25:47.004Z,1.9
2022-09-27T16:27:03.241Z,2.4
2022-09-27T16:28:19.470Z,2.7
2022-09-27T16:29:35.712Z,2.8
2022-09-27T16:30:51.959Z,3.3
2022-09-27T16:32:08.189Z,3.8
2022-09-27T16:33:24.440Z,3.4
2022-09-27T16:34:40.684Z,4.1
2022-09-27T16:35:56.910Z,3.6
2022-09-27T16:37:13.156Z,3.8
2022-09-27T16:38:28.419Z,4.4
2022-09-27T16:41:00.900Z,7.1
2022-09-27T16:42:17.139Z,11.1
2022-09-27T16:43:33.373Z,12.1
2022-09-27T16:44:49.619Z,12
2022-09-27T16:46:05.859Z,10.3
2022-09-27T16:47:22.104Z,7.9
2022-09-27T16:49:54.582Z,7.3
2022-09-27T16:51:10.820Z,4
2022-09-27T16:52:27.058Z,3.2
2022-09-27T16:53:43.296Z,3.1
2022-09-27T16:54:58.547Z,3
2022-09-27T16:56:14.788Z,2.9
2022-09-27T16:57:31.028Z,3
2022-09-27T16:58:47.269Z,3.1
2022-09-27T17:00:03.510Z,3.3
2022-09-27T17:01:19.762Z,3.4
2022-09-27T17:02:35.985Z,3.5
2022-09-27T17:03:52.230Z,3.5
2022-09-27T17:05:08.482Z,3.1
2022-09-27T17:06:24.711Z,3.4
2022-09-27T17:07:40.954Z,3.3
2022-09-27T17:10:13.426Z,3.2
2022-09-27T17:11:29.674Z,3.4
2022-09-27T17:12:44.936Z,3.8
2022-09-27T17:14:01.173Z,5.3
2022-09-27T17:15:17.411Z,7.2
2022-09-27T17:16:33.658Z,8.2
2022-09-27T17:17:49.884Z,8.4
2022-09-27T17:19:06.133Z,8.7
2022-09-27T17:20:22.371Z,8.8
2022-09-27T17:21:38.624Z,9
2022-09-27T17:22:54.844Z,7.6
2022-09-27T17:24:11.094Z,7.4
2022-09-27T17:25:27.330Z,5.5
2022-09-27T17:27:59.814Z,4.6
2022-09-27T17:29:15.073Z,4.1
2022-09-27T17:30:31.359Z,4.2
2022-09-27T17:31:47.670Z,4
2022-09-27T17:33:03.954Z,4
2022-09-27T17:34:20.242Z,4.5
2022-09-27T17:35:36.541Z,5.1
2022-09-27T17:36:52.846Z,4.4
2022-09-27T17:38:09.142Z,5.4
2022-09-27T17:39:25.438Z,7
2022-09-27T17:40:41.716Z,6.9
2022-09-27T17:41:58.026Z,4.8
2022-09-27T17:43:14.312Z,3.7
2022-09-27T17:44:30.602Z,3.3
2022-09-27T17:45:45.911Z,3.1
2022-09-27T17:47:02.219Z,2.8
2022-09-27T17:48:18.514Z,3.1
2022-09-27T17:49:34.792Z,2.9
2022-09-27T17:50:51.092Z,3.1
2022-09-27T17:52:07.395Z,3.7
2022-09-27T17:53:23.671Z,3.1
2022-09-27T17:54:39.985Z,2.5
2022-09-27T17:55:56.259Z,2.2
2022-09-27T17:57:12.569Z,2.1
2022-09-27T17:58:28.856Z,2.8
2022-09-27T18:01:01.443Z,4
2022-09-27T18:02:17.741Z,4.8
2022-09-27T18:03:33.056Z,6
2022-09-27T18:04:49.346Z,4.4
2022-09-27T18:06:05.640Z,4.3
2022-09-27T18:07:21.935Z,2.8
2022-09-27T18:08:38.219Z,2.7
2022-09-27T18:09:54.520Z,2.3
2022-09-27T18:11:10.824Z,2.5
2022-09-27T18:12:27.116Z,2.5
2022-09-27T18:13:43.414Z,2.3
2022-09-27T18:14:59.692Z,2.4
2022-09-27T18:16:15.996Z,2.5
2022-09-27T18:17:32.298Z,2.3
2022-09-27T18:18:48.587Z,2.8
2022-09-27T18:20:03.902Z,3